sensor_id;sensor_type;location;lat;lon;timestamp;pressure;altitude;pressure_sealevel;temperature;humidity
70027;BME280;57506;50.092;15.804;2023-07-28T00:02:05;98294.38;;;18.02;98.31
70027;BME280;57506;50.092;15.804;2023-07-28T00:04:30;98298.78;;;18.08;100.00
70027;BME280;57506;50.092;15.804;2023-07-28T00:06:56;98293.50;;;17.92;100.00
70027;BME280;57506;50.092;15.804;2023-07-28T00:09:21;98285.78;;;17.78;100.00
70027;BME280;57506;50.092;15.804;2023-07-28T00:11:48;98291.03;;;17.85;100.00
70027;BME280;57506;50.092;15.804;2023-07-28T00:14:14;98293.19;;;17.88;100.00
70027;BME280;57506;50.092;15.804;2023-07-28T00:16:39;98285.16;;;17.66;100.00
70027;BME280;57506;50.092;15.804;2023-07-28T00:19:05;98290.09;;;17.69;100.00
70027;BME280;57506;50.092;15.804;2023-07-28T00:21:31;98289.47;;;17.62;100.00
70027;BME280;57506;50.092;15.804;2023-07-28T00:23:56;98281.47;;;17.51;100.00
70027;BME280;57506;50.092;15.804;2023-07-28T00:26:22;98278.06;;;17.65;100.00
70027;BME280;57506;50.092;15.804;2023-07-28T00:28:47;98278.44;;;17.47;100.00
70027;BME280;57506;50.092;15.804;2023-07-28T00:31:13;98268.97;;;17.55;100.00
70027;BME280;57506;50.092;15.804;2023-07-28T00:33:38;98278.78;;;17.56;100.00
70027;BME280;57506;50.092;15.804;2023-07-28T00:36:04;98276.25;;;17.44;100.00
70027;BME280;57506;50.092;15.804;2023-07-28T00:38:29;98275.69;;;17.42;100.00
70027;BME280;57506;50.092;15.804;2023-07-28T00:40:55;98273.34;;;17.24;100.00
70027;BME280;57506;50.092;15.804;2023-07-28T00:43:21;98264.06;;;17.20;100.00
70027;BME280;57506;50.092;15.804;2023-07-28T00:45:46;98266.38;;;17.06;100.00
70027;BME280;57506;50.092;15.804;2023-07-28T00:48:14;98255.19;;;17.02;100.00
70027;BME280;57506;50.092;15.804;2023-07-28T00:50:42;98255.28;;;17.12;100.00
70027;BME280;57506;50.092;15.804;2023-07-28T00:53:10;98257.19;;;17.12;100.00
70027;BME280;57506;50.092;15.804;2023-07-28T00:55:37;98258.78;;;17.08;100.00
70027;BME280;57506;50.092;15.804;2023-07-28T00:58:03;98259.56;;;17.03;100.00
70027;BME280;57506;50.092;15.804;2023-07-28T01:00:28;98255.72;;;16.99;100.00
70027;BME280;57506;50.092;15.804;2023-07-28T01:02:54;98252.56;;;17.12;100.00
70027;BME280;57506;50.092;15.804;2023-07-28T01:05:26;98246.81;;;17.09;100.00
70027;BME280;57506;50.092;15.804;2023-07-28T01:08:01;98244.66;;;17.11;100.00
70027;BME280;57506;50.092;15.804;2023-07-28T01:10:31;98242.19;;;17.09;100.00
70027;BME280;57506;50.092;15.804;2023-07-28T01:12:59;98238.69;;;17.14;100.00
70027;BME280;57506;50.092;15.804;2023-07-28T01:15:25;98232.94;;;17.10;100.00
70027;BME280;57506;50.092;15.804;2023-07-28T01:17:51;98233.56;;;17.23;100.00
70027;BME280;57506;50.092;15.804;2023-07-28T01:20:17;98221.03;;;17.17;100.00
70027;BME280;57506;50.092;15.804;2023-07-28T01:28:01;98227.88;;;17.24;100.00
70027;BME280;57506;50.092;15.804;2023-07-28T01:30:27;98218.28;;;17.17;100.00
70027;BME280;57506;50.092;15.804;2023-07-28T01:32:55;98215.63;;;17.27;100.00
70027;BME280;57506;50.092;15.804;2023-07-28T01:35:21;98225.72;;;17.26;100.00
70027;BME280;57506;50.092;15.804;2023-07-28T01:37:47;98216.47;;;17.27;100.00
70027;BME280;57506;50.092;15.804;2023-07-28T01:40:17;98215.69;;;17.32;100.00
70027;BME280;57506;50.092;15.804;2023-07-28T01:42:46;98220.38;;;17.36;100.00
70027;BME280;57506;50.092;15.804;2023-07-28T01:45:12;98218.97;;;17.34;100.00
70027;BME280;57506;50.092;15.804;2023-07-28T01:47:37;98210.88;;;17.44;100.00
70027;BME280;57506;50.092;15.804;2023-07-28T01:50:03;98201.56;;;17.40;100.00
70027;BME280;57506;50.092;15.804;2023-07-28T01:52:29;98210.09;;;17.54;100.00
70027;BME280;57506;50.092;15.804;2023-07-28T01:54:55;98204.56;;;17.38;100.00
70027;BME280;57506;50.092;15.804;2023-07-28T01:57:20;98194.56;;;17.49;100.00
70027;BME280;57506;50.092;15.804;2023-07-28T01:59:46;98207.63;;;17.47;100.00
70027;BME280;57506;50.092;15.804;2023-07-28T02:02:12;98192.88;;;17.43;100.00
70027;BME280;57506;50.092;15.804;2023-07-28T02:04:37;98202.47;;;17.51;100.00
70027;BME280;57506;50.092;15.804;2023-07-28T02:07:03;98198.16;;;17.60;100.00
70027;BME280;57506;50.092;15.804;2023-07-28T02:09:28;98189.94;;;17.55;100.00
70027;BME280;57506;50.092;15.804;2023-07-28T02:11:54;98191.72;;;17.66;100.00
70027;BME280;57506;50.092;15.804;2023-07-28T02:14:19;98198.53;;;17.73;100.00
70027;BME280;57506;50.092;15.804;2023-07-28T02:16:45;98195.25;;;17.71;100.00
70027;BME280;57506;50.092;15.804;2023-07-28T02:19:10;98195.44;;;17.60;100.00
70027;BME280;57506;50.092;15.804;2023-07-28T02:21:36;98202.53;;;17.61;100.00
70027;BME280;57506;50.092;15.804;2023-07-28T02:24:01;98192.38;;;17.46;100.00
70027;BME280;57506;50.092;15.804;2023-07-28T02:26:27;98196.13;;;17.35;100.00
70027;BME280;57506;50.092;15.804;2023-07-28T02:28:52;98200.44;;;17.31;100.00
70027;BME280;57506;50.092;15.804;2023-07-28T02:31:18;98186.28;;;17.34;100.00
70027;BME280;57506;50.092;15.804;2023-07-28T02:33:44;98187.06;;;17.29;100.00
70027;BME280;57506;50.092;15.804;2023-07-28T02:36:09;98177.41;;;17.11;100.00
70027;BME280;57506;50.092;15.804;2023-07-28T02:38:35;98179.63;;;17.14;100.00
70027;BME280;57506;50.092;15.804;2023-07-28T02:41:01;98168.47;;;17.16;100.00
70027;BME280;57506;50.092;15.804;2023-07-28T02:43:28;98166.22;;;17.08;100.00
70027;BME280;57506;50.092;15.804;2023-07-28T02:45:55;98166.47;;;17.06;100.00
70027;BME280;57506;50.092;15.804;2023-07-28T02:48:21;98174.16;;;17.14;100.00
70027;BME280;57506;50.092;15.804;2023-07-28T02:50:47;98159.47;;;17.16;100.00
70027;BME280;57506;50.092;15.804;2023-07-28T02:53:13;98155.16;;;17.20;100.00
70027;BME280;57506;50.092;15.804;2023-07-28T02:55:47;98177.22;;;17.23;100.00
70027;BME280;57506;50.092;15.804;2023-07-28T02:58:14;98173.16;;;17.26;100.00
70027;BME280;57506;50.092;15.804;2023-07-28T03:00:40;98167.72;;;17.26;100.00
70027;BME280;57506;50.092;15.804;2023-07-28T03:03:11;98159.31;;;17.32;100.00
70027;BME280;57506;50.092;15.804;2023-07-28T03:05:37;98159.88;;;17.34;100.00
70027;BME280;57506;50.092;15.804;2023-07-28T03:08:03;98167.53;;;17.42;100.00
70027;BME280;57506;50.092;15.804;2023-07-28T03:10:28;98162.34;;;17.41;100.00
70027;BME280;57506;50.092;15.804;2023-07-28T03:12:54;98160.47;;;17.41;100.00
70027;BME280;57506;50.092;15.804;2023-07-28T03:15:21;98168.44;;;17.53;100.00
70027;BME280;57506;50.092;15.804;2023-07-28T03:17:50;98163.53;;;17.50;100.00
70027;BME280;57506;50.092;15.804;2023-07-28T03:20:16;98174.94;;;17.47;100.00
70027;BME280;57506;50.092;15.804;2023-07-28T03:22:42;98170.22;;;17.37;100.00
70027;BME280;57506;50.092;15.804;2023-07-28T03:25:08;98182.44;;;17.30;100.00
70027;BME280;57506;50.092;15.804;2023-07-28T03:27:34;98165.50;;;17.23;100.00
70027;BME280;57506;50.092;15.804;2023-07-28T03:30:00;98185.44;;;17.28;100.00
70027;BME280;57506;50.092;15.804;2023-07-28T03:32:25;98172.59;;;17.24;100.00
70027;BME280;57506;50.092;15.804;2023-07-28T03:34:51;98181.09;;;17.32;100.00
70027;BME280;57506;50.092;15.804;2023-07-28T03:37:16;98179.22;;;17.33;100.00
70027;BME280;57506;50.092;15.804;2023-07-28T03:39:42;98175.88;;;17.26;100.00
70027;BME280;57506;50.092;15.804;2023-07-28T03:42:07;98145.25;;;17.08;100.00
70027;BME280;57506;50.092;15.804;2023-07-28T03:44:33;98176.47;;;17.33;100.00
70027;BME280;57506;50.092;15.804;2023-07-28T03:46:59;98184.16;;;17.41;100.00
70027;BME280;57506;50.092;15.804;2023-07-28T03:49:25;98186.63;;;17.42;100.00
70027;BME280;57506;50.092;15.804;2023-07-28T03:51:51;98186.16;;;17.56;100.00
70027;BME280;57506;50.092;15.804;2023-07-28T03:54:17;98177.16;;;17.50;100.00
70027;BME280;57506;50.092;15.804;2023-07-28T03:56:42;98183.69;;;17.54;100.00
70027;BME280;57506;50.092;15.804;2023-07-28T03:59:08;98180.44;;;17.57;100.00
70027;BME280;57506;50.092;15.804;2023-07-28T04:01:33;98185.94;;;17.62;100.00
70027;BME280;57506;50.092;15.804;2023-07-28T04:03:59;98191.44;;;17.72;100.00
70027;BME280;57506;50.092;15.804;2023-07-28T04:06:45;98184.34;;;17.71;100.00
70027;BME280;57506;50.092;15.804;2023-07-28T04:09:13;98189.81;;;17.71;100.00
70027;BME280;57506;50.092;15.804;2023-07-28T04:11:39;98183.00;;;17.69;100.00
70027;BME280;57506;50.092;15.804;2023-07-28T04:14:05;98187.13;;;17.76;100.00
70027;BME280;57506;50.092;15.804;2023-07-28T04:16:31;98179.97;;;17.65;100.00
70027;BME280;57506;50.092;15.804;2023-07-28T04:18:57;98178.34;;;17.64;100.00
70027;BME280;57506;50.092;15.804;2023-07-28T04:21:23;98200.19;;;17.69;100.00
70027;BME280;57506;50.092;15.804;2023-07-28T04:23:48;98195.38;;;17.49;100.00
70027;BME280;57506;50.092;15.804;2023-07-28T04:26:16;98202.91;;;17.32;100.00
70027;BME280;57506;50.092;15.804;2023-07-28T04:28:42;98181.53;;;17.14;100.00
70027;BME280;57506;50.092;15.804;2023-07-28T04:31:08;98188.03;;;17.13;100.00
70027;BME280;57506;50.092;15.804;2023-07-28T04:33:33;98176.59;;;17.11;100.00
70027;BME280;57506;50.092;15.804;2023-07-28T04:36:02;98179.81;;;17.08;100.00
70027;BME280;57506;50.092;15.804;2023-07-28T04:38:27;98180.66;;;17.08;100.00
70027;BME280;57506;50.092;15.804;2023-07-28T04:40:53;98169.75;;;17.08;100.00
70027;BME280;57506;50.092;15.804;2023-07-28T04:43:19;98167.28;;;17.07;100.00
70027;BME280;57506;50.092;15.804;2023-07-28T04:45:44;98175.19;;;17.08;100.00
70027;BME280;57506;50.092;15.804;2023-07-28T04:48:10;98166.47;;;17.01;100.00
70027;BME280;57506;50.092;15.804;2023-07-28T04:50:36;98148.50;;;17.05;100.00
70027;BME280;57506;50.092;15.804;2023-07-28T04:53:02;98141.66;;;16.98;100.00
70027;BME280;57506;50.092;15.804;2023-07-28T04:55:28;98135.44;;;17.02;100.00
70027;BME280;57506;50.092;15.804;2023-07-28T04:57:55;98151.00;;;17.12;100.00
70027;BME280;57506;50.092;15.804;2023-07-28T05:00:21;98137.91;;;17.09;100.00
70027;BME280;57506;50.092;15.804;2023-07-28T05:02:47;98156.00;;;17.25;100.00
70027;BME280;57506;50.092;15.804;2023-07-28T05:05:12;98138.84;;;17.25;100.00
70027;BME280;57506;50.092;15.804;2023-07-28T05:07:38;98147.31;;;17.28;100.00
70027;BME280;57506;50.092;15.804;2023-07-28T05:10:04;98165.03;;;17.31;100.00
70027;BME280;57506;50.092;15.804;2023-07-28T05:12:29;98156.56;;;17.27;100.00
70027;BME280;57506;50.092;15.804;2023-07-28T05:14:55;98170.44;;;17.26;100.00
70027;BME280;57506;50.092;15.804;2023-07-28T05:17:21;98182.09;;;17.21;100.00
70027;BME280;57506;50.092;15.804;2023-07-28T05:19:47;98184.81;;;17.21;100.00
70027;BME280;57506;50.092;15.804;2023-07-28T05:22:12;98174.75;;;17.17;100.00
70027;BME280;57506;50.092;15.804;2023-07-28T05:24:38;98190.56;;;17.25;100.00
70027;BME280;57506;50.092;15.804;2023-07-28T05:27:04;98184.34;;;17.29;100.00
70027;BME280;57506;50.092;15.804;2023-07-28T05:29:29;98188.91;;;17.19;100.00
70027;BME280;57506;50.092;15.804;2023-07-28T05:31:57;98202.63;;;17.34;100.00
70027;BME280;57506;50.092;15.804;2023-07-28T05:34:23;98197.00;;;17.45;100.00
70027;BME280;57506;50.092;15.804;2023-07-28T05:36:49;98196.94;;;17.35;100.00
70027;BME280;57506;50.092;15.804;2023-07-28T05:39:15;98190.16;;;17.43;100.00
70027;BME280;57506;50.092;15.804;2023-07-28T05:41:40;98192.38;;;17.46;100.00
70027;BME280;57506;50.092;15.804;2023-07-28T05:44:06;98194.69;;;17.64;100.00
70027;BME280;57506;50.092;15.804;2023-07-28T05:46:31;98209.47;;;17.78;100.00
70027;BME280;57506;50.092;15.804;2023-07-28T05:48:57;98201.31;;;17.78;100.00
70027;BME280;57506;50.092;15.804;2023-07-28T05:51:23;98205.72;;;17.85;100.00
70027;BME280;57506;50.092;15.804;2023-07-28T05:53:49;98210.56;;;17.77;100.00
70027;BME280;57506;50.092;15.804;2023-07-28T05:56:16;98210.53;;;17.72;100.00
70027;BME280;57506;50.092;15.804;2023-07-28T05:58:41;98217.69;;;17.89;100.00
70027;BME280;57506;50.092;15.804;2023-07-28T06:01:07;98220.47;;;17.94;100.00
70027;BME280;57506;50.092;15.804;2023-07-28T06:03:33;98221.50;;;17.88;100.00
70027;BME280;57506;50.092;15.804;2023-07-28T06:05:59;98222.41;;;17.98;100.00
70027;BME280;57506;50.092;15.804;2023-07-28T06:08:24;98229.97;;;17.91;100.00
70027;BME280;57506;50.092;15.804;2023-07-28T06:10:50;98223.44;;;17.92;100.00
70027;BME280;57506;50.092;15.804;2023-07-28T06:13:15;98233.59;;;18.02;100.00
70027;BME280;57506;50.092;15.804;2023-07-28T06:15:42;98229.78;;;18.08;100.00
70027;BME280;57506;50.092;15.804;2023-07-28T06:18:07;98234.66;;;17.96;100.00
70027;BME280;57506;50.092;15.804;2023-07-28T06:20:34;98230.53;;;17.93;100.00
70027;BME280;57506;50.092;15.804;2023-07-28T06:23:00;98222.63;;;17.92;100.00
70027;BME280;57506;50.092;15.804;2023-07-28T06:25:26;98233.31;;;17.98;100.00
70027;BME280;57506;50.092;15.804;2023-07-28T06:27:52;98241.78;;;18.02;100.00
70027;BME280;57506;50.092;15.804;2023-07-28T06:30:18;98240.19;;;18.11;100.00
70027;BME280;57506;50.092;15.804;2023-07-28T06:32:43;98232.84;;;18.16;100.00
70027;BME280;57506;50.092;15.804;2023-07-28T06:35:09;98243.47;;;18.13;100.00
70027;BME280;57506;50.092;15.804;2023-07-28T06:37:36;98226.63;;;18.31;100.00
70027;BME280;57506;50.092;15.804;2023-07-28T06:40:06;98257.72;;;18.35;100.00
70027;BME280;57506;50.092;15.804;2023-07-28T06:42:34;98246.06;;;18.50;100.00
70027;BME280;57506;50.092;15.804;2023-07-28T06:44:59;98252.63;;;18.49;100.00
70027;BME280;57506;50.092;15.804;2023-07-28T06:47:25;98255.09;;;18.50;100.00
70027;BME280;57506;50.092;15.804;2023-07-28T06:49:50;98254.25;;;18.55;100.00
70027;BME280;57506;50.092;15.804;2023-07-28T06:52:16;98254.03;;;18.62;100.00
70027;BME280;57506;50.092;15.804;2023-07-28T06:54:41;98249.69;;;18.61;100.00
70027;BME280;57506;50.092;15.804;2023-07-28T06:57:07;98257.88;;;18.71;100.00
70027;BME280;57506;50.092;15.804;2023-07-28T06:59:33;98258.97;;;18.65;100.00
70027;BME280;57506;50.092;15.804;2023-07-28T07:01:58;98256.22;;;18.70;100.00
70027;BME280;57506;50.092;15.804;2023-07-28T07:04:24;98251.59;;;18.70;100.00
70027;BME280;57506;50.092;15.804;2023-07-28T07:06:49;98257.41;;;18.94;100.00
70027;BME280;57506;50.092;15.804;2023-07-28T07:09:15;98257.41;;;19.04;100.00
70027;BME280;57506;50.092;15.804;2023-07-28T07:11:41;98254.13;;;19.07;100.00
70027;BME280;57506;50.092;15.804;2023-07-28T07:14:07;98270.53;;;19.12;100.00
70027;BME280;57506;50.092;15.804;2023-07-28T07:16:33;98273.25;;;19.17;100.00
70027;BME280;57506;50.092;15.804;2023-07-28T07:18:59;98266.94;;;18.92;100.00
70027;BME280;57506;50.092;15.804;2023-07-28T07:21:26;98270.50;;;19.07;100.00
70027;BME280;57506;50.092;15.804;2023-07-28T07:23:51;98274.09;;;19.28;100.00
70027;BME280;57506;50.092;15.804;2023-07-28T07:26:17;98286.38;;;19.36;100.00
70027;BME280;57506;50.092;15.804;2023-07-28T07:28:42;98283.94;;;19.54;100.00
70027;BME280;57506;50.092;15.804;2023-07-28T07:31:14;98286.41;;;19.61;100.00
70027;BME280;57506;50.092;15.804;2023-07-28T07:33:41;98283.38;;;19.68;100.00
70027;BME280;57506;50.092;15.804;2023-07-28T07:36:17;98294.06;;;19.74;100.00
70027;BME280;57506;50.092;15.804;2023-07-28T07:38:44;98288.84;;;19.83;100.00
70027;BME280;57506;50.092;15.804;2023-07-28T07:41:13;98288.53;;;20.00;100.00
70027;BME280;57506;50.092;15.804;2023-07-28T07:43:44;98291.53;;;20.03;100.00
70027;BME280;57506;50.092;15.804;2023-07-28T07:46:10;98279.19;;;20.21;100.00
70027;BME280;57506;50.092;15.804;2023-07-28T07:48:35;98278.03;;;20.32;100.00
70027;BME280;57506;50.092;15.804;2023-07-28T07:51:01;98290.59;;;20.53;100.00
70027;BME280;57506;50.092;15.804;2023-07-28T07:53:26;98291.34;;;20.69;100.00
70027;BME280;57506;50.092;15.804;2023-07-28T07:55:52;98282.47;;;20.92;100.00
70027;BME280;57506;50.092;15.804;2023-07-28T07:58:17;98284.56;;;21.06;100.00
70027;BME280;57506;50.092;15.804;2023-07-28T08:00:43;98292.91;;;21.29;100.00
70027;BME280;57506;50.092;15.804;2023-07-28T08:03:09;98293.69;;;21.40;100.00
70027;BME280;57506;50.092;15.804;2023-07-28T08:05:35;98288.50;;;21.34;100.00
70027;BME280;57506;50.092;15.804;2023-07-28T08:08:01;98294.94;;;21.53;100.00
70027;BME280;57506;50.092;15.804;2023-07-28T08:10:26;98289.25;;;21.44;100.00
70027;BME280;57506;50.092;15.804;2023-07-28T08:12:53;98297.56;;;21.34;100.00
70027;BME280;57506;50.092;15.804;2023-07-28T08:15:18;98297.28;;;21.30;100.00
70027;BME280;57506;50.092;15.804;2023-07-28T08:17:45;98310.88;;;21.46;100.00
70027;BME280;57506;50.092;15.804;2023-07-28T08:20:11;98313.09;;;21.44;100.00
70027;BME280;57506;50.092;15.804;2023-07-28T08:22:37;98311.13;;;21.10;100.00
70027;BME280;57506;50.092;15.804;2023-07-28T08:25:03;98312.19;;;21.14;100.00
70027;BME280;57506;50.092;15.804;2023-07-28T08:27:29;98309.69;;;21.18;100.00
70027;BME280;57506;50.092;15.804;2023-07-28T08:29:55;98314.78;;;21.40;100.00
70027;BME280;57506;50.092;15.804;2023-07-28T08:32:20;98317.28;;;21.70;100.00
70027;BME280;57506;50.092;15.804;2023-07-28T08:34:47;98318.03;;;22.10;100.00
70027;BME280;57506;50.092;15.804;2023-07-28T08:37:13;98313.38;;;22.34;100.00
70027;BME280;57506;50.092;15.804;2023-07-28T08:39:38;98315.91;;;22.30;96.77
70027;BME280;57506;50.092;15.804;2023-07-28T08:42:04;98309.28;;;22.31;99.85
70027;BME280;57506;50.092;15.804;2023-07-28T08:44:31;98319.00;;;22.24;96.30
70027;BME280;57506;50.092;15.804;2023-07-28T08:46:59;98312.16;;;22.45;96.07
70027;BME280;57506;50.092;15.804;2023-07-28T08:49:25;98319.47;;;22.31;93.23
70027;BME280;57506;50.092;15.804;2023-07-28T08:51:52;98318.03;;;22.10;95.00
70027;BME280;57506;50.092;15.804;2023-07-28T08:54:22;98318.69;;;21.96;92.79
70027;BME280;57506;50.092;15.804;2023-07-28T08:56:48;98318.56;;;22.12;97.57
70027;BME280;57506;50.092;15.804;2023-07-28T08:59:23;98327.63;;;22.12;94.36
70027;BME280;57506;50.092;15.804;2023-07-28T09:01:51;98320.72;;;22.15;93.12
70027;BME280;57506;50.092;15.804;2023-07-28T09:04:17;98326.59;;;22.32;95.94
70027;BME280;57506;50.092;15.804;2023-07-28T09:06:48;98332.66;;;22.29;91.82
70027;BME280;57506;50.092;15.804;2023-07-28T09:09:14;98324.16;;;22.25;92.49
70027;BME280;57506;50.092;15.804;2023-07-28T09:11:53;98332.03;;;22.08;93.39
70027;BME280;57506;50.092;15.804;2023-07-28T09:14:20;98324.00;;;22.17;92.68
70027;BME280;57506;50.092;15.804;2023-07-28T09:16:47;98322.09;;;22.17;91.78
70027;BME280;57506;50.092;15.804;2023-07-28T09:19:13;98324.16;;;22.54;93.03
70027;BME280;57506;50.092;15.804;2023-07-28T09:21:41;98316.66;;;22.84;93.51
70027;BME280;57506;50.092;15.804;2023-07-28T09:24:10;98322.41;;;22.87;89.84
70027;BME280;57506;50.092;15.804;2023-07-28T09:29:25;98309.41;;;23.68;88.82
70027;BME280;57506;50.092;15.804;2023-07-28T09:31:53;98316.94;;;24.08;84.48
70027;BME280;57506;50.092;15.804;2023-07-28T09:34:26;98330.09;;;24.12;81.85
70027;BME280;57506;50.092;15.804;2023-07-28T09:36:57;98322.63;;;23.47;80.68
70027;BME280;57506;50.092;15.804;2023-07-28T09:39:23;98312.25;;;22.59;89.75
70027;BME280;57506;50.092;15.804;2023-07-28T09:41:49;98319.63;;;21.82;100.00
70027;BME280;57506;50.092;15.804;2023-07-28T09:44:15;98322.34;;;21.58;100.00
70027;BME280;57506;50.092;15.804;2023-07-28T09:47:01;98322.84;;;21.60;100.00
70027;BME280;57506;50.092;15.804;2023-07-28T09:49:29;98320.47;;;22.11;100.00
70027;BME280;57506;50.092;15.804;2023-07-28T09:52:04;98315.25;;;22.86;100.00
70027;BME280;57506;50.092;15.804;2023-07-28T09:54:34;98314.13;;;23.44;100.00
70027;BME280;57506;50.092;15.804;2023-07-28T09:57:03;98312.69;;;23.32;88.45
70027;BME280;57506;50.092;15.804;2023-07-28T09:59:32;98312.59;;;23.56;88.52
70027;BME280;57506;50.092;15.804;2023-07-28T10:02:01;98316.94;;;24.08;88.21
70027;BME280;57506;50.092;15.804;2023-07-28T10:04:27;98299.34;;;24.23;84.67
70027;BME280;57506;50.092;15.804;2023-07-28T10:06:54;98301.81;;;23.60;82.32
70027;BME280;57506;50.092;15.804;2023-07-28T10:09:25;98309.69;;;22.67;85.25
70027;BME280;57506;50.092;15.804;2023-07-28T10:11:52;98313.84;;;22.41;86.95
70027;BME280;57506;50.092;15.804;2023-07-28T10:14:37;98321.84;;;22.14;91.13
70027;BME280;57506;50.092;15.804;2023-07-28T10:17:04;98328.63;;;21.58;100.00
70027;BME280;57506;50.092;15.804;2023-07-28T10:19:35;98312.25;;;21.04;100.00
70027;BME280;57506;50.092;15.804;2023-07-28T10:22:08;98312.81;;;21.01;100.00
70027;BME280;57506;50.092;15.804;2023-07-28T10:24:53;98317.09;;;21.17;100.00
70027;BME280;57506;50.092;15.804;2023-07-28T10:30:03;98294.50;;;22.04;100.00
70027;BME280;57506;50.092;15.804;2023-07-28T10:32:44;98308.22;;;22.04;100.00
70027;BME280;57506;50.092;15.804;2023-07-28T10:37:39;98304.03;;;22.35;100.00
70027;BME280;57506;50.092;15.804;2023-07-28T10:42:52;98317.31;;;21.65;100.00
70027;BME280;57506;50.092;15.804;2023-07-28T10:45:18;98311.09;;;21.54;100.00
70027;BME280;57506;50.092;15.804;2023-07-28T10:47:45;98302.34;;;21.52;100.00
70027;BME280;57506;50.092;15.804;2023-07-28T10:50:11;98310.84;;;21.85;100.00
70027;BME280;57506;50.092;15.804;2023-07-28T10:52:41;98310.53;;;21.91;100.00
70027;BME280;57506;50.092;15.804;2023-07-28T10:55:17;98319.31;;;21.88;98.44
70027;BME280;57506;50.092;15.804;2023-07-28T10:57:45;98314.75;;;22.37;100.00
70027;BME280;57506;50.092;15.804;2023-07-28T11:00:12;98313.75;;;22.51;94.33
70027;BME280;57506;50.092;15.804;2023-07-28T11:02:41;98319.56;;;22.68;90.40
70027;BME280;57506;50.092;15.804;2023-07-28T11:05:29;98313.44;;;22.77;88.74
70027;BME280;57506;50.092;15.804;2023-07-28T11:07:58;98306.28;;;23.18;94.18
70027;BME280;57506;50.092;15.804;2023-07-28T11:10:25;98309.66;;;23.53;92.86
70027;BME280;57506;50.092;15.804;2023-07-28T11:12:51;98315.19;;;23.48;84.87
70027;BME280;57506;50.092;15.804;2023-07-28T11:15:18;98308.06;;;23.47;84.66
70027;BME280;57506;50.092;15.804;2023-07-28T11:17:46;98320.53;;;23.58;83.81
70027;BME280;57506;50.092;15.804;2023-07-28T11:20:25;98317.94;;;23.29;81.74
70027;BME280;57506;50.092;15.804;2023-07-28T11:25:26;98319.00;;;23.14;83.46
70027;BME280;57506;50.092;15.804;2023-07-28T11:27:52;98314.09;;;22.68;86.52
70027;BME280;57506;50.092;15.804;2023-07-28T11:30:19;98324.50;;;22.48;88.53
70027;BME280;57506;50.092;15.804;2023-07-28T11:32:47;98315.97;;;22.49;90.70
70027;BME280;57506;50.092;15.804;2023-07-28T11:35:14;98317.72;;;23.07;90.59
70027;BME280;57506;50.092;15.804;2023-07-28T11:37:43;98312.44;;;23.48;85.64
70027;BME280;57506;50.092;15.804;2023-07-28T11:40:10;98303.41;;;24.26;85.32
70027;BME280;57506;50.092;15.804;2023-07-28T11:42:49;98303.13;;;24.55;78.21
70027;BME280;57506;50.092;15.804;2023-07-28T11:45:17;98306.09;;;24.31;79.77
70027;BME280;57506;50.092;15.804;2023-07-28T11:50:35;98325.47;;;24.39;76.92
70027;BME280;57506;50.092;15.804;2023-07-28T11:53:02;98319.91;;;24.12;74.50
70027;BME280;57506;50.092;15.804;2023-07-28T11:55:29;98309.31;;;24.88;79.12
70027;BME280;57506;50.092;15.804;2023-07-28T11:57:55;98304.78;;;25.19;73.87
70027;BME280;57506;50.092;15.804;2023-07-28T12:00:31;98312.78;;;25.07;74.56
70027;BME280;57506;50.092;15.804;2023-07-28T12:03:12;98318.78;;;25.23;74.92
70027;BME280;57506;50.092;15.804;2023-07-28T12:05:39;98318.72;;;24.87;72.77
70027;BME280;57506;50.092;15.804;2023-07-28T12:08:06;98325.38;;;24.58;73.59
70027;BME280;57506;50.092;15.804;2023-07-28T12:10:35;98335.16;;;24.78;72.90
70027;BME280;57506;50.092;15.804;2023-07-28T12:13:05;98326.63;;;25.29;70.23
70027;BME280;57506;50.092;15.804;2023-07-28T12:15:31;98322.69;;;25.08;70.16
70027;BME280;57506;50.092;15.804;2023-07-28T12:18:07;98325.97;;;24.83;72.22
70027;BME280;57506;50.092;15.804;2023-07-28T12:20:37;98331.59;;;24.64;73.24
70027;BME280;57506;50.092;15.804;2023-07-28T12:23:03;98324.13;;;24.37;71.20
70027;BME280;57506;50.092;15.804;2023-07-28T12:25:30;98325.97;;;24.41;72.56
70027;BME280;57506;50.092;15.804;2023-07-28T12:27:56;98314.25;;;24.77;73.53
70027;BME280;57506;50.092;15.804;2023-07-28T12:30:22;98305.88;;;24.55;73.81
70027;BME280;57506;50.092;15.804;2023-07-28T12:32:48;98307.28;;;24.25;71.69
70027;BME280;57506;50.092;15.804;2023-07-28T12:35:13;98314.75;;;24.65;70.96
70027;BME280;57506;50.092;15.804;2023-07-28T12:37:39;98316.38;;;25.07;71.79
70027;BME280;57506;50.092;15.804;2023-07-28T12:40:05;98321.97;;;25.16;68.61
70027;BME280;57506;50.092;15.804;2023-07-28T12:42:32;98313.41;;;25.04;71.85
70027;BME280;57506;50.092;15.804;2023-07-28T12:44:57;98327.50;;;25.16;68.49
70027;BME280;57506;50.092;15.804;2023-07-28T12:47:23;98325.41;;;25.22;69.11
70027;BME280;57506;50.092;15.804;2023-07-28T12:49:49;98315.31;;;25.17;68.25
70027;BME280;57506;50.092;15.804;2023-07-28T12:52:15;98323.78;;;25.21;69.25
70027;BME280;57506;50.092;15.804;2023-07-28T12:54:41;98322.09;;;25.47;68.87
70027;BME280;57506;50.092;15.804;2023-07-28T12:57:08;98322.91;;;25.34;67.25
70027;BME280;57506;50.092;15.804;2023-07-28T12:59:36;98321.63;;;25.18;67.56
70027;BME280;57506;50.092;15.804;2023-07-28T13:02:02;98326.69;;;25.38;67.86
70027;BME280;57506;50.092;15.804;2023-07-28T13:04:27;98326.63;;;25.29;67.91